Time;durP1;ratioP1;P1;durP2;ratioP2;P2;SDS_P1;SDS_P2;PMS_P1;PMS_P2;Temp;Humidity;BMP_temperature;BMP_pressure;BME280_temperature;BME280_humidity;BME280_pressure;Samples;Min_cycle;Max_cycle;Signal;HPM_P1;HPM_P2
2022/04/12 00:00:18;;;;;;;4.25;2.10;;;;;;;;;;5050063;28;20082;-69
2022/04/12 00:02:43;;;;;;;4.53;1.80;;;;;;;;;;5052500;28;20259;-68
2022/04/12 00:05:12;;;;;;;4.25;2.20;;;;;;;;;;5048288;28;20029;-67
2022/04/12 00:07:38;;;;;;;3.08;1.77;;;;;;;;;;5042300;28;20135;-67
2022/04/12 00:10:04;;;;;;;3.42;1.90;;;;;;;;;;5052330;28;20028;-67
2022/04/12 00:12:29;;;;;;;3.70;1.92;;;;;;;;;;5040127;28;20040;-66
2022/04/12 00:14:54;;;;;;;2.22;2.00;;;;;;;;;;5053862;28;20036;-68
2022/04/12 00:20:04;;;;;;;3.38;2.58;;;;;;;;;;5053901;28;20818;-68
2022/04/12 00:22:29;;;;;;;6.75;4.32;;;;;;;;;;5054779;28;20045;-68
2022/04/12 00:24:54;;;;;;;4.63;2.88;;;;;;;;;;5054515;28;20119;-68
2022/04/12 00:27:19;;;;;;;3.08;2.60;;;;;;;;;;5061238;28;20043;-67
2022/04/12 00:29:45;;;;;;;4.80;3.03;;;;;;;;;;5047323;28;20029;-68
2022/04/12 00:32:10;;;;;;;3.92;2.42;;;;;;;;;;5056278;28;20017;-68
2022/04/12 00:34:35;;;;;;;4.65;2.70;;;;;;;;;;5049370;28;20025;-67
2022/04/12 00:37:00;;;;;;;5.45;2.75;;;;;;;;;;5044883;28;20017;-67
2022/04/12 00:39:25;;;;;;;5.20;3.08;;;;;;;;;;5055370;28;20485;-67
2022/04/12 00:41:51;;;;;;;5.15;3.50;;;;;;;;;;5053610;28;20028;-67
2022/04/12 00:44:16;;;;;;;4.35;3.15;;;;;;;;;;5054582;28;20488;-67
2022/04/12 00:46:41;;;;;;;5.40;2.95;;;;;;;;;;5052451;28;20887;-67
2022/04/12 00:49:06;;;;;;;4.35;2.78;;;;;;;;;;5052624;28;20037;-67
2022/04/12 00:51:31;;;;;;;3.75;2.60;;;;;;;;;;5060385;28;20111;-67
2022/04/12 00:53:57;;;;;;;6.15;2.88;;;;;;;;;;5052994;28;20028;-67
2022/04/12 00:56:24;;;;;;;3.92;2.65;;;;;;;;;;5062409;28;20025;-68
2022/04/12 00:58:49;;;;;;;3.97;2.92;;;;;;;;;;5037935;28;20083;-67
2022/04/12 01:01:15;;;;;;;4.55;3.00;;;;;;;;;;5051868;28;20028;-68
2022/04/12 01:03:40;;;;;;;4.65;3.15;;;;;;;;;;5050184;28;20032;-68
2022/04/12 01:06:05;;;;;;;4.15;3.05;;;;;;;;;;5050345;28;20022;-68
2022/04/12 01:08:30;;;;;;;4.95;2.88;;;;;;;;;;5051633;28;20078;-68
2022/04/12 01:10:58;;;;;;;3.95;2.95;;;;;;;;;;5054469;28;20473;-68
2022/04/12 01:13:23;;;;;;;5.68;3.20;;;;;;;;;;5059564;28;20020;-68
2022/04/12 01:15:48;;;;;;;4.03;2.88;;;;;;;;;;5041387;28;20021;-68
2022/04/12 01:18:14;;;;;;;4.30;3.05;;;;;;;;;;5044402;28;20037;-68
2022/04/12 01:20:39;;;;;;;3.83;3.00;;;;;;;;;;5051119;28;20221;-68
2022/04/12 01:23:14;;;;;;;4.38;2.80;;;;;;;;;;5052172;28;20079;-68
2022/04/12 01:25:40;;;;;;;5.32;3.55;;;;;;;;;;5047350;28;20090;-68
2022/04/12 01:28:06;;;;;;;3.92;3.25;;;;;;;;;;5045557;28;20395;-68
2022/04/12 01:30:31;;;;;;;3.47;2.72;;;;;;;;;;5046724;28;20424;-68
2022/04/12 01:32:56;;;;;;;4.63;3.05;;;;;;;;;;5044405;28;20104;-68
2022/04/12 01:35:22;;;;;;;4.43;2.88;;;;;;;;;;5054341;28;20031;-68
2022/04/12 01:37:47;;;;;;;3.78;2.78;;;;;;;;;;5052715;28;20508;-68
2022/04/12 01:40:12;;;;;;;3.10;2.28;;;;;;;;;;5051901;28;20024;-68
2022/04/12 01:42:38;;;;;;;4.70;2.95;;;;;;;;;;5052953;28;20485;-69
2022/04/12 01:45:03;;;;;;;3.22;2.80;;;;;;;;;;5049665;28;20057;-69
2022/04/12 01:47:29;;;;;;;4.33;2.60;;;;;;;;;;5050777;28;20092;-69
2022/04/12 01:49:54;;;;;;;6.17;3.20;;;;;;;;;;5055564;28;20048;-68
2022/04/12 01:52:19;;;;;;;6.72;3.28;;;;;;;;;;5051076;28;20108;-68
2022/04/12 01:54:44;;;;;;;5.80;3.80;;;;;;;;;;5052894;28;20397;-68
2022/04/12 01:57:09;;;;;;;6.53;3.88;;;;;;;;;;5046377;28;20458;-68
2022/04/12 01:59:35;;;;;;;7.28;4.22;;;;;;;;;;5044941;28;20402;-68
2022/04/12 02:02:00;;;;;;;8.25;3.97;;;;;;;;;;5010868;28;1079787;-68
2022/04/12 02:04:25;;;;;;;7.70;3.83;;;;;;;;;;5034684;28;20839;-68
2022/04/12 02:06:50;;;;;;;4.93;3.28;;;;;;;;;;5055924;28;20028;-68
2022/04/12 02:09:15;;;;;;;3.67;3.05;;;;;;;;;;5048536;28;20032;-69
2022/04/12 02:11:41;;;;;;;5.13;2.70;;;;;;;;;;5053076;28;20162;-69
2022/04/12 02:14:07;;;;;;;3.60;2.03;;;;;;;;;;5053433;28;20136;-68
2022/04/12 02:16:33;;;;;;;3.40;2.13;;;;;;;;;;5049516;28;20032;-69
2022/04/12 02:18:58;;;;;;;2.95;2.05;;;;;;;;;;5048826;28;20405;-69
2022/04/12 02:21:23;;;;;;;3.08;2.40;;;;;;;;;;5057580;28;20484;-69
2022/04/12 02:23:48;;;;;;;3.67;2.40;;;;;;;;;;5057583;28;20069;-68
2022/04/12 02:26:14;;;;;;;3.63;2.40;;;;;;;;;;5053350;28;20029;-68
2022/04/12 02:28:39;;;;;;;5.15;2.78;;;;;;;;;;5040141;28;20045;-69
2022/04/12 02:31:04;;;;;;;3.57;2.70;;;;;;;;;;5050849;28;20029;-68
2022/04/12 02:33:29;;;;;;;7.35;3.05;;;;;;;;;;5053028;28;21073;-68
2022/04/12 02:35:55;;;;;;;4.00;3.03;;;;;;;;;;5050264;28;20029;-69
2022/04/12 02:38:20;;;;;;;3.90;2.85;;;;;;;;;;5048150;28;20020;-68
2022/04/12 02:40:45;;;;;;;4.45;2.90;;;;;;;;;;5055800;28;20673;-69
2022/04/12 02:43:10;;;;;;;4.80;2.75;;;;;;;;;;5053989;28;20371;-68
2022/04/12 02:45:36;;;;;;;3.90;2.35;;;;;;;;;;5045250;28;20029;-68
2022/04/12 02:48:01;;;;;;;2.72;2.13;;;;;;;;;;5052973;28;20124;-69
2022/04/12 02:50:27;;;;;;;5.47;2.60;;;;;;;;;;5052889;28;20020;-68
2022/04/12 02:52:52;;;;;;;3.40;2.35;;;;;;;;;;5066937;28;20020;-69
2022/04/12 02:55:18;;;;;;;2.63;2.40;;;;;;;;;;5068645;28;20099;-69
2022/04/12 02:57:43;;;;;;;3.72;2.40;;;;;;;;;;5044282;28;20121;-69
2022/04/12 03:00:08;;;;;;;5.47;3.55;;;;;;;;;;5059652;28;20158;-68
2022/04/12 03:02:33;;;;;;;5.20;3.22;;;;;;;;;;5058590;28;20378;-68
2022/04/12 03:04:59;;;;;;;4.03;2.50;;;;;;;;;;5059047;28;20037;-69
2022/04/12 03:07:24;;;;;;;4.18;2.53;;;;;;;;;;5050085;28;20055;-69
2022/04/12 03:09:49;;;;;;;6.33;3.10;;;;;;;;;;5050681;28;20497;-68
2022/04/12 03:12:15;;;;;;;4.03;2.20;;;;;;;;;;5048560;28;20044;-70
2022/04/12 03:14:40;;;;;;;2.87;2.13;;;;;;;;;;5053360;28;20450;-68
2022/04/12 03:17:05;;;;;;;3.60;1.65;;;;;;;;;;5032342;28;20036;-68
2022/04/12 03:19:30;;;;;;;2.72;1.90;;;;;;;;;;5049248;28;20063;-68
2022/04/12 03:21:55;;;;;;;3.17;1.80;;;;;;;;;;5047537;28;20052;-68
2022/04/12 03:24:22;;;;;;;3.45;1.92;;;;;;;;;;5053772;28;20029;-69
2022/04/12 03:26:47;;;;;;;4.00;1.83;;;;;;;;;;5051424;28;20021;-69
2022/04/12 03:29:12;;;;;;;4.60;2.15;;;;;;;;;;5045051;28;20495;-70
2022/04/12 03:31:38;;;;;;;5.78;1.98;;;;;;;;;;5053825;28;20048;-68
2022/04/12 03:34:03;;;;;;;4.13;2.80;;;;;;;;;;5031045;28;20076;-69
2022/04/12 03:36:28;;;;;;;4.18;2.90;;;;;;;;;;5048675;28;20026;-68
2022/04/12 03:38:53;;;;;;;6.45;2.80;;;;;;;;;;5053364;28;20438;-68
2022/04/12 03:41:21;;;;;;;4.70;3.10;;;;;;;;;;5049688;28;20090;-68
2022/04/12 03:43:46;;;;;;;5.80;3.07;;;;;;;;;;5052530;28;20429;-68
2022/04/12 03:46:12;;;;;;;5.73;3.67;;;;;;;;;;5045674;28;20045;-68
2022/04/12 03:48:37;;;;;;;9.70;6.20;;;;;;;;;;5062513;28;20090;-68
2022/04/12 03:51:02;;;;;;;5.00;3.17;;;;;;;;;;5061977;28;20063;-68
2022/04/12 03:53:27;;;;;;;5.33;3.77;;;;;;;;;;5058248;28;20016;-68
2022/04/12 03:55:55;;;;;;;5.93;4.27;;;;;;;;;;5031262;28;20029;-68
2022/04/12 03:58:21;;;;;;;5.73;4.13;;;;;;;;;;5043382;28;20158;-68
2022/04/12 04:00:46;;;;;;;4.90;3.73;;;;;;;;;;5046076;28;20120;-68
2022/04/12 04:03:11;;;;;;;4.93;3.30;;;;;;;;;;5053222;28;20049;-68
2022/04/12 04:05:37;;;;;;;5.80;3.23;;;;;;;;;;5056118;28;20037;-69
2022/04/12 04:08:02;;;;;;;5.40;3.07;;;;;;;;;;5045319;28;20025;-68
2022/04/12 04:10:27;;;;;;;4.43;3.30;;;;;;;;;;5049790;28;20521;-69
2022/04/12 04:12:53;;;;;;;5.33;3.67;;;;;;;;;;5053830;28;20025;-69
2022/04/12 04:15:18;;;;;;;4.33;2.67;;;;;;;;;;5048983;28;20029;-69
2022/04/12 04:17:45;;;;;;;6.43;3.70;;;;;;;;;;5065445;28;20017;-67
2022/04/12 04:20:11;;;;;;;4.70;2.80;;;;;;;;;;5064087;28;20462;-67
2022/04/12 04:22:36;;;;;;;4.33;2.70;;;;;;;;;;5049820;28;20116;-67
2022/04/12 04:25:01;;;;;;;4.67;3.33;;;;;;;;;;5051131;28;20388;-68
2022/04/12 04:27:29;;;;;;;4.03;2.57;;;;;;;;;;5047466;28;20103;-68
2022/04/12 04:29:55;;;;;;;6.73;3.00;;;;;;;;;;5047715;28;20024;-68
2022/04/12 04:32:20;;;;;;;4.93;3.40;;;;;;;;;;5052835;28;20058;-68
2022/04/12 04:34:46;;;;;;;5.07;2.90;;;;;;;;;;5062893;28;20068;-68
2022/04/12 04:37:11;;;;;;;5.70;3.00;;;;;;;;;;5057412;28;20020;-68
2022/04/12 04:39:36;;;;;;;5.07;2.90;;;;;;;;;;5052103;28;20027;-67
2022/04/12 04:42:05;;;;;;;8.23;2.90;;;;;;;;;;5049984;28;20040;-68
2022/04/12 04:44:30;;;;;;;5.03;2.93;;;;;;;;;;5046783;28;20048;-68
2022/04/12 04:46:55;;;;;;;5.33;2.67;;;;;;;;;;5046681;28;20365;-67
2022/04/12 04:49:20;;;;;;;7.93;3.47;;;;;;;;;;5049843;28;20051;-67
2022/04/12 04:51:46;;;;;;;6.00;3.07;;;;;;;;;;5051039;28;20520;-68
2022/04/12 04:54:11;;;;;;;6.50;2.50;;;;;;;;;;5056428;28;20912;-68
2022/04/12 04:56:36;;;;;;;4.27;2.20;;;;;;;;;;5064215;28;20021;-68
2022/04/12 04:59:02;;;;;;;4.13;2.17;;;;;;;;;;5043456;28;20426;-68
2022/04/12 05:01:27;;;;;;;2.85;1.80;;;;;;;;;;5047004;28;20044;-67
2022/04/12 05:03:52;;;;;;;3.30;2.00;;;;;;;;;;5045907;28;20063;-68
2022/04/12 05:06:18;;;;;;;5.65;2.30;;;;;;;;;;5046180;28;20028;-68
2022/04/12 05:08:43;;;;;;;3.53;2.00;;;;;;;;;;5033670;28;20512;-68
2022/04/12 05:11:09;;;;;;;3.05;1.98;;;;;;;;;;5051193;28;20017;-69
2022/04/12 05:13:34;;;;;;;4.88;2.33;;;;;;;;;;5044478;28;20245;-68
2022/04/12 05:15:59;;;;;;;3.75;2.10;;;;;;;;;;5047608;28;20037;-68
2022/04/12 05:18:24;;;;;;;5.72;3.67;;;;;;;;;;5045827;28;20043;-68
2022/04/12 05:20:49;;;;;;;5.85;1.83;;;;;;;;;;5050235;28;20028;-68
2022/04/12 05:23:15;;;;;;;3.67;1.98;;;;;;;;;;5053221;28;20511;-68
2022/04/12 05:25:40;;;;;;;5.10;2.30;;;;;;;;;;5052575;28;20056;-68
2022/04/12 05:28:05;;;;;;;6.10;1.85;;;;;;;;;;5045884;28;20102;-68
2022/04/12 05:30:31;;;;;;;6.10;2.00;;;;;;;;;;5046534;28;20021;-68
2022/04/12 05:32:57;;;;;;;5.57;2.28;;;;;;;;;;5050222;28;20111;-69
2022/04/12 05:35:22;;;;;;;3.95;2.45;;;;;;;;;;5056707;28;20474;-69
2022/04/12 05:37:49;;;;;;;6.25;2.53;;;;;;;;;;5053019;28;20433;-68
2022/04/12 05:40:15;;;;;;;4.00;1.92;;;;;;;;;;5052815;28;20013;-68
2022/04/12 05:42:40;;;;;;;4.80;2.10;;;;;;;;;;5053640;28;20359;-68
2022/04/12 05:45:09;;;;;;;3.50;2.05;;;;;;;;;;5047674;28;20025;-68
2022/04/12 05:47:51;;;;;;;3.42;1.60;;;;;;;;;;5053579;28;20479;-68
2022/04/12 05:50:17;;;;;;;5.07;1.90;;;;;;;;;;5041998;28;20073;-68
2022/04/12 05:52:43;;;;;;;3.55;1.73;;;;;;;;;;5048069;28;20097;-68
2022/04/12 05:55:12;;;;;;;2.88;1.70;;;;;;;;;;5049815;28;20026;-68
2022/04/12 05:57:38;;;;;;;5.25;1.98;;;;;;;;;;5048087;28;20484;-68
2022/04/12 06:00:06;;;;;;;3.17;2.30;;;;;;;;;;5050066;28;20021;-68
2022/04/12 06:02:31;;;;;;;4.18;1.92;;;;;;;;;;5048248;28;20068;-68
2022/04/12 06:04:57;;;;;;;4.28;2.15;;;;;;;;;;5047970;28;20448;-68
2022/04/12 06:07:22;;;;;;;3.88;2.38;;;;;;;;;;5037409;28;20087;-68
2022/04/12 06:09:47;;;;;;;5.25;2.08;;;;;;;;;;5033069;28;20048;-68
2022/04/12 06:12:12;;;;;;;5.57;2.13;;;;;;;;;;5055248;28;20028;-67
2022/04/12 06:14:37;;;;;;;4.65;1.80;;;;;;;;;;5045103;28;20121;-67
2022/04/12 06:17:03;;;;;;;4.03;2.20;;;;;;;;;;5062054;28;20020;-67
2022/04/12 06:19:28;;;;;;;3.40;1.75;;;;;;;;;;5051437;28;20124;-68
2022/04/12 06:21:53;;;;;;;4.32;1.98;;;;;;;;;;5053941;28;20032;-68
2022/04/12 06:24:18;;;;;;;4.13;1.70;;;;;;;;;;5068837;28;20528;-68
2022/04/12 06:26:43;;;;;;;1.90;1.30;;;;;;;;;;5050893;28;20036;-68
2022/04/12 06:29:09;;;;;;;3.47;1.75;;;;;;;;;;5031773;28;20045;-68
2022/04/12 06:31:34;;;;;;;2.92;1.42;;;;;;;;;;5050235;28;20219;-68
2022/04/12 06:33:59;;;;;;;4.20;1.70;;;;;;;;;;5031203;28;20076;-68
2022/04/12 06:36:24;;;;;;;2.80;1.85;;;;;;;;;;5049818;28;20025;-68
2022/04/12 06:38:50;;;;;;;3.20;1.23;;;;;;;;;;5050628;28;20116;-68
2022/04/12 06:41:16;;;;;;;4.03;1.55;;;;;;;;;;5051210;28;20025;-68
2022/04/12 06:43:41;;;;;;;3.15;1.63;;;;;;;;;;5052843;28;20158;-68
2022/04/12 06:46:06;;;;;;;2.75;1.38;;;;;;;;;;5049671;28;20037;-68
2022/04/12 06:48:31;;;;;;;3.20;1.77;;;;;;;;;;5051934;28;20431;-69
2022/04/12 06:50:56;;;;;;;3.63;1.70;;;;;;;;;;5050310;28;20436;-68
2022/04/12 06:53:23;;;;;;;3.80;1.50;;;;;;;;;;5031289;28;20026;-68
2022/04/12 06:55:48;;;;;;;3.75;1.25;;;;;;;;;;5039136;28;20048;-68
2022/04/12 06:58:13;;;;;;;3.40;1.70;;;;;;;;;;5043862;28;20061;-68
2022/04/12 07:00:40;;;;;;;2.42;1.40;;;;;;;;;;5042072;28;20021;-68
2022/04/12 07:03:05;;;;;;;2.33;1.60;;;;;;;;;;5062800;28;20135;-68
2022/04/12 07:05:30;;;;;;;2.97;1.20;;;;;;;;;;5050569;28;20540;-68
2022/04/12 07:07:57;;;;;;;4.18;1.40;;;;;;;;;;5060476;28;20021;-68
2022/04/12 07:10:22;;;;;;;3.00;1.30;;;;;;;;;;5052028;28;20013;-68
2022/04/12 07:12:53;;;;;;;2.88;1.00;;;;;;;;;;5050897;28;20021;-68
2022/04/12 07:15:18;;;;;;;4.22;1.50;;;;;;;;;;5043307;28;20112;-67
2022/04/12 07:17:43;;;;;;;2.10;1.15;;;;;;;;;;5045056;28;20057;-68
2022/04/12 07:20:09;;;;;;;3.30;1.35;;;;;;;;;;5053133;28;20025;-68
2022/04/12 07:22:34;;;;;;;3.65;1.23;;;;;;;;;;5052428;28;20488;-68
2022/04/12 07:25:00;;;;;;;1.92;1.20;;;;;;;;;;5050288;28;20029;-68
2022/04/12 07:27:25;;;;;;;3.75;1.10;;;;;;;;;;5028292;28;20436;-68
2022/04/12 07:29:50;;;;;;;3.30;1.20;;;;;;;;;;5044578;28;20028;-68
2022/04/12 07:32:15;;;;;;;2.35;1.00;;;;;;;;;;5032146;28;20026;-68
2022/04/12 07:34:40;;;;;;;2.33;1.15;;;;;;;;;;5032284;28;20029;-68
2022/04/12 07:37:05;;;;;;;2.10;1.00;;;;;;;;;;5041523;28;20138;-70
2022/04/12 07:39:31;;;;;;;3.47;1.27;;;;;;;;;;5059828;28;20538;-71
2022/04/12 07:41:56;;;;;;;2.42;1.30;;;;;;;;;;5051348;28;20024;-70
2022/04/12 07:44:21;;;;;;;1.80;0.90;;;;;;;;;;5051563;28;20041;-69
2022/04/12 07:46:47;;;;;;;3.20;1.13;;;;;;;;;;5050111;28;20035;-70
2022/04/12 07:49:12;;;;;;;1.98;0.90;;;;;;;;;;5048287;28;20139;-68
2022/04/12 07:51:38;;;;;;;5.32;0.70;;;;;;;;;;5050069;28;20093;-72
2022/04/12 07:54:04;;;;;;;2.42;0.95;;;;;;;;;;5050498;28;20029;-69
2022/04/12 07:56:30;;;;;;;1.75;0.88;;;;;;;;;;5035167;28;21521;-68
2022/04/12 07:58:55;;;;;;;4.03;0.60;;;;;;;;;;5048899;28;20094;-71
2022/04/12 08:01:20;;;;;;;2.15;0.80;;;;;;;;;;5049749;28;20053;-69
2022/04/12 08:03:45;;;;;;;1.63;0.68;;;;;;;;;;5031343;28;20385;-68
2022/04/12 08:06:10;;;;;;;1.92;0.60;;;;;;;;;;5044783;28;20466;-68
2022/04/12 08:08:36;;;;;;;2.17;0.60;;;;;;;;;;5060063;28;20116;-67
2022/04/12 08:11:01;;;;;;;2.30;0.50;;;;;;;;;;5065509;28;20009;-67
2022/04/12 08:13:26;;;;;;;3.85;1.00;;;;;;;;;;5053147;28;20017;-68
2022/04/12 08:15:52;;;;;;;1.55;0.82;;;;;;;;;;5047356;28;20059;-68
2022/04/12 08:18:17;;;;;;;1.38;0.63;;;;;;;;;;5049638;28;20398;-68
2022/04/12 08:20:42;;;;;;;1.70;0.80;;;;;;;;;;5049361;28;20029;-68
2022/04/12 08:23:07;;;;;;;2.15;0.80;;;;;;;;;;5045770;28;20033;-68
2022/04/12 08:25:33;;;;;;;1.58;0.95;;;;;;;;;;5052674;28;20029;-68
2022/04/12 08:27:58;;;;;;;2.78;1.13;;;;;;;;;;5051428;28;20031;-68
2022/04/12 08:30:23;;;;;;;2.20;0.90;;;;;;;;;;5051233;28;20013;-68
2022/04/12 08:32:48;;;;;;;2.80;0.60;;;;;;;;;;5054586;28;20020;-68
2022/04/12 08:35:14;;;;;;;1.58;0.82;;;;;;;;;;5054794;28;20105;-68
2022/04/12 08:37:39;;;;;;;2.70;0.90;;;;;;;;;;5066964;28;20044;-68
2022/04/12 08:40:05;;;;;;;1.90;0.70;;;;;;;;;;5054807;28;20079;-68
2022/04/12 08:42:30;;;;;;;1.70;1.00;;;;;;;;;;5054234;28;20055;-69
2022/04/12 08:44:57;;;;;;;1.63;0.65;;;;;;;;;;5049483;28;20029;-69
2022/04/12 08:47:23;;;;;;;1.65;0.90;;;;;;;;;;5047071;28;20028;-69
2022/04/12 08:49:48;;;;;;;1.77;0.60;;;;;;;;;;5061401;28;20489;-69
2022/04/12 08:52:14;;;;;;;2.25;0.40;;;;;;;;;;5065823;28;20086;-69
2022/04/12 08:54:40;;;;;;;3.35;0.82;;;;;;;;;;5049300;28;20099;-69
2022/04/12 08:57:05;;;;;;;1.77;0.70;;;;;;;;;;5038668;28;20055;-69
2022/04/12 08:59:30;;;;;;;1.55;0.50;;;;;;;;;;5029481;28;20018;-69
2022/04/12 09:01:56;;;;;;;2.72;0.70;;;;;;;;;;5044001;28;20493;-69
2022/04/12 09:04:21;;;;;;;3.38;0.77;;;;;;;;;;5045368;28;20108;-69
2022/04/12 09:06:50;;;;;;;1.10;0.60;;;;;;;;;;5033554;28;20033;-69
2022/04/12 09:09:17;;;;;;;2.47;0.52;;;;;;;;;;5036205;28;20416;-69
2022/04/12 09:11:43;;;;;;;2.95;0.68;;;;;;;;;;5063323;28;20354;-69
2022/04/12 09:14:12;;;;;;;1.58;0.47;;;;;;;;;;5065131;28;20095;-69
2022/04/12 09:16:41;;;;;;;3.28;0.63;;;;;;;;;;5048541;28;20022;-69
2022/04/12 09:19:07;;;;;;;0.95;0.40;;;;;;;;;;5040629;28;20022;-68
2022/04/12 09:21:32;;;;;;;0.85;0.30;;;;;;;;;;5051875;28;20032;-68
2022/04/12 09:23:58;;;;;;;3.00;0.50;;;;;;;;;;5031971;28;20044;-68
2022/04/12 09:26:23;;;;;;;1.67;0.60;;;;;;;;;;5052107;28;20025;-68
2022/04/12 09:28:50;;;;;;;1.33;0.40;;;;;;;;;;5049281;28;20378;-68
2022/04/12 09:31:16;;;;;;;2.00;0.40;;;;;;;;;;5035314;28;20489;-68
2022/04/12 09:33:42;;;;;;;0.85;0.40;;;;;;;;;;5053013;28;20520;-69
2022/04/12 09:36:07;;;;;;;1.20;0.40;;;;;;;;;;5051427;28;20013;-68
2022/04/12 09:38:33;;;;;;;2.78;0.55;;;;;;;;;;5043521;28;20021;-68
2022/04/12 09:41:12;;;;;;;1.17;0.35;;;;;;;;;;5050389;28;20032;-68
2022/04/12 09:43:52;;;;;;;0.88;0.50;;;;;;;;;;5032221;28;20055;-68
2022/04/12 09:46:18;;;;;;;0.95;0.40;;;;;;;;;;5037877;28;20178;-68
2022/04/12 09:48:47;;;;;;;1.80;0.50;;;;;;;;;;5050119;28;20576;-69
2022/04/12 09:51:13;;;;;;;1.02;0.30;;;;;;;;;;5053314;28;20108;-68
2022/04/12 09:53:39;;;;;;;1.38;0.52;;;;;;;;;;5036957;28;20097;-69
2022/04/12 09:56:13;;;;;;;2.10;0.40;;;;;;;;;;5034173;28;20400;-70
2022/04/12 09:58:39;;;;;;;2.17;0.38;;;;;;;;;;5037667;28;20033;-66
2022/04/12 10:01:05;;;;;;;2.58;0.50;;;;;;;;;;5033149;28;20037;-66
2022/04/12 10:03:30;;;;;;;1.95;0.45;;;;;;;;;;5034089;28;20501;-66
2022/04/12 10:05:56;;;;;;;2.60;0.50;;;;;;;;;;5032253;28;20397;-66
2022/04/12 10:08:22;;;;;;;2.47;0.50;;;;;;;;;;5049500;28;20032;-65
2022/04/12 10:10:47;;;;;;;1.52;0.50;;;;;;;;;;5051717;28;20013;-65
2022/04/12 10:13:13;;;;;;;2.25;0.40;;;;;;;;;;5051653;28;20165;-66
2022/04/12 10:15:39;;;;;;;2.25;0.60;;;;;;;;;;5040498;28;20104;-65
2022/04/12 10:18:04;;;;;;;1.70;0.43;;;;;;;;;;5039428;28;20117;-66
2022/04/12 10:20:30;;;;;;;0.95;0.43;;;;;;;;;;5032517;28;20056;-66
2022/04/12 10:22:56;;;;;;;4.13;0.63;;;;;;;;;;5036834;28;20035;-66
2022/04/12 10:25:22;;;;;;;2.03;0.50;;;;;;;;;;5052403;28;20021;-67
2022/04/12 10:27:53;;;;;;;1.40;0.40;;;;;;;;;;5039133;28;20040;-66
2022/04/12 10:30:18;;;;;;;1.50;0.43;;;;;;;;;;5037859;28;20025;-66
2022/04/12 10:33:01;;;;;;;1.47;0.40;;;;;;;;;;5043227;28;20021;-66
2022/04/12 10:35:31;;;;;;;1.08;0.40;;;;;;;;;;5050215;28;20271;-65
2022/04/12 10:37:59;;;;;;;0.90;0.40;;;;;;;;;;5033572;28;20080;-68
2022/04/12 10:40:25;;;;;;;1.45;0.43;;;;;;;;;;5036774;28;20079;-66
2022/04/12 10:42:52;;;;;;;0.80;0.30;;;;;;;;;;5045223;28;20109;-66
2022/04/12 10:45:26;;;;;;;1.48;0.45;;;;;;;;;;5040455;28;20024;-67
2022/04/12 10:47:55;;;;;;;1.95;0.38;;;;;;;;;;5050818;28;20116;-66
2022/04/12 10:50:20;;;;;;;1.35;0.50;;;;;;;;;;5040991;28;20060;-67
2022/04/12 10:52:48;;;;;;;1.03;0.43;;;;;;;;;;5032592;28;20478;-67
2022/04/12 10:55:13;;;;;;;1.60;0.30;;;;;;;;;;5032339;28;20748;-66
2022/04/12 10:57:39;;;;;;;3.27;0.60;;;;;;;;;;5033002;28;20045;-67
2022/04/12 11:00:08;;;;;;;2.30;0.57;;;;;;;;;;5037222;28;20275;-67
2022/04/12 11:02:37;;;;;;;0.80;0.30;;;;;;;;;;5042693;28;20045;-66
2022/04/12 11:05:03;;;;;;;1.77;0.40;;;;;;;;;;5048086;28;20545;-66
2022/04/12 11:07:37;;;;;;;1.42;0.50;;;;;;;;;;5045659;28;20165;-67
2022/04/12 11:10:02;;;;;;;;;;;;;;;;;;5037810;28;20029;-72
2022/04/12 11:12:39;;;;;;;1.33;0.40;;;;;;;;;;5052156;28;20273;-67
2022/04/12 11:15:24;;;;;;;1.75;0.40;;;;;;;;;;5050068;28;20546;-69
2022/04/12 11:17:49;;;;;;;0.77;0.43;;;;;;;;;;5041917;28;20509;-59
2022/04/12 11:20:22;;;;;;;0.68;0.40;;;;;;;;;;5042085;28;20025;-57
2022/04/12 11:22:55;;;;;;;2.00;0.30;;;;;;;;;;5047646;28;20032;-62
2022/04/12 11:25:22;;;;;;;0.60;0.30;;;;;;;;;;5043155;28;20045;-61
2022/04/12 11:27:54;;;;;;;1.95;0.30;;;;;;;;;;5042307;28;20049;-61
2022/04/12 11:30:20;;;;;;;1.95;0.40;;;;;;;;;;5047081;28;20092;-62
2022/04/12 11:32:45;;;;;;;3.08;0.50;;;;;;;;;;5056913;28;20024;-62
2022/04/12 11:35:10;;;;;;;1.27;0.30;;;;;;;;;;5051647;28;20358;-62
2022/04/12 11:37:39;;;;;;;0.67;0.30;;;;;;;;;;5036893;28;20560;-65
2022/04/12 11:40:04;;;;;;;3.10;0.40;;;;;;;;;;5040094;28;20482;-66
2022/04/12 11:42:29;;;;;;;0.82;0.38;;;;;;;;;;5048234;28;20025;-64
2022/04/12 11:44:55;;;;;;;0.70;0.40;;;;;;;;;;5031565;28;20088;-65
2022/04/12 11:47:25;;;;;;;0.93;0.60;;;;;;;;;;5041723;28;20064;-66
2022/04/12 11:49:51;;;;;;;0.38;0.20;;;;;;;;;;5044343;28;20040;-65
2022/04/12 11:52:16;;;;;;;1.50;0.30;;;;;;;;;;5049267;28;20112;-65
2022/04/12 11:54:45;;;;;;;0.80;0.30;;;;;;;;;;5049947;28;20017;-65
2022/04/12 11:57:15;;;;;;;1.25;0.57;;;;;;;;;;5030601;28;20264;-64
2022/04/12 11:59:50;;;;;;;3.53;0.57;;;;;;;;;;5034705;28;20470;-64
2022/04/12 12:02:19;;;;;;;1.15;0.40;;;;;;;;;;5053327;28;20040;-65
2022/04/12 12:04:49;;;;;;;0.60;0.30;;;;;;;;;;5041068;28;20071;-65
2022/04/12 12:07:15;;;;;;;1.10;0.30;;;;;;;;;;5044426;28;20104;-64
2022/04/12 12:09:50;;;;;;;1.50;0.40;;;;;;;;;;5051814;28;20484;-65
2022/04/12 12:12:16;;;;;;;1.52;0.50;;;;;;;;;;5053296;28;20020;-65
2022/04/12 12:14:41;;;;;;;0.45;0.40;;;;;;;;;;5054320;28;20021;-65
2022/04/12 12:17:08;;;;;;;1.73;0.50;;;;;;;;;;5064129;28;20097;-64
2022/04/12 12:19:37;;;;;;;0.73;0.30;;;;;;;;;;5073300;28;20541;-63
2022/04/12 12:22:02;;;;;;;0.45;0.30;;;;;;;;;;5065548;28;20025;-63
2022/04/12 12:24:28;;;;;;;0.40;0.38;;;;;;;;;;5055106;28;20036;-65
2022/04/12 12:26:54;;;;;;;1.30;0.32;;;;;;;;;;5055451;28;20393;-64
2022/04/12 12:29:20;;;;;;;0.50;0.30;;;;;;;;;;5046868;28;20024;-64
2022/04/12 12:31:46;;;;;;;1.20;0.40;;;;;;;;;;5035274;28;20021;-64
2022/04/12 12:34:27;;;;;;;1.37;0.30;;;;;;;;;;5066653;28;20034;-64
2022/04/12 12:36:52;;;;;;;1.70;0.50;;;;;;;;;;5054938;28;20496;-64
2022/04/12 12:39:18;;;;;;;1.87;0.90;;;;;;;;;;5055076;28;20033;-64
2022/04/12 12:41:43;;;;;;;1.38;0.30;;;;;;;;;;5055335;28;20501;-64
2022/04/12 12:44:09;;;;;;;1.87;0.40;;;;;;;;;;5054666;28;20021;-64
2022/04/12 12:46:34;;;;;;;0.90;0.30;;;;;;;;;;5052627;28;20520;-64
2022/04/12 12:49:06;;;;;;;0.98;0.30;;;;;;;;;;5053969;28;20021;-64
2022/04/12 12:51:32;;;;;;;1.00;0.30;;;;;;;;;;5054959;28;20040;-64
2022/04/12 12:54:01;;;;;;;1.53;0.30;;;;;;;;;;5058678;28;20016;-64
2022/04/12 12:56:31;;;;;;;1.00;0.40;;;;;;;;;;5036826;28;20032;-63
2022/04/12 12:59:12;;;;;;;1.50;0.40;;;;;;;;;;5041400;28;20375;-64
2022/04/12 13:01:44;;;;;;;0.93;0.50;;;;;;;;;;5051607;28;20064;-64
2022/04/12 13:04:18;;;;;;;0.60;0.40;;;;;;;;;;5053205;28;20488;-64
2022/04/12 13:06:43;;;;;;;2.25;0.75;;;;;;;;;;5053651;28;20022;-64
2022/04/12 13:09:09;;;;;;;0.87;0.43;;;;;;;;;;5034531;28;20083;-64
2022/04/12 13:11:34;;;;;;;1.20;0.50;;;;;;;;;;5052962;28;20028;-65
2022/04/12 13:13:59;;;;;;;1.40;0.67;;;;;;;;;;5052134;28;20017;-64
2022/04/12 13:16:24;;;;;;;1.90;0.50;;;;;;;;;;5051492;28;20025;-64
2022/04/12 13:18:49;;;;;;;1.70;0.70;;;;;;;;;;5058626;28;20397;-65
2022/04/12 13:21:16;;;;;;;1.43;0.80;;;;;;;;;;5059894;28;20187;-65
2022/04/12 13:23:41;;;;;;;2.38;0.77;;;;;;;;;;5054632;28;20056;-63
2022/04/12 13:26:06;;;;;;;2.10;0.77;;;;;;;;;;5053587;28;20375;-63
2022/04/12 13:28:31;;;;;;;1.43;0.90;;;;;;;;;;5045758;28;20025;-64
2022/04/12 13:30:56;;;;;;;3.77;1.00;;;;;;;;;;5052302;28;20466;-64
2022/04/12 13:33:21;;;;;;;1.57;1.20;;;;;;;;;;5053126;28;20094;-64
2022/04/12 13:35:47;;;;;;;1.17;1.03;;;;;;;;;;5048511;28;20023;-64
2022/04/12 13:38:12;;;;;;;1.57;1.10;;;;;;;;;;5044453;28;20024;-64
2022/04/12 13:40:37;;;;;;;1.23;1.07;;;;;;;;;;5047464;28;20044;-63
2022/04/12 13:43:04;;;;;;;1.93;1.07;;;;;;;;;;5051928;28;20075;-63
2022/04/12 13:45:29;;;;;;;1.63;1.52;;;;;;;;;;5043491;28;20037;-64
2022/04/12 13:47:54;;;;;;;2.43;2.23;;;;;;;;;;5043988;28;20086;-65
2022/04/12 13:50:19;;;;;;;1.53;1.00;;;;;;;;;;5047059;28;20029;-65
2022/04/12 13:52:45;;;;;;;1.07;0.97;;;;;;;;;;5046810;28;20073;-65
2022/04/12 13:55:10;;;;;;;1.60;1.47;;;;;;;;;;5041130;28;20396;-65
2022/04/12 13:57:36;;;;;;;2.30;1.50;;;;;;;;;;5035898;28;20036;-65
2022/04/12 14:00:02;;;;;;;1.42;1.33;;;;;;;;;;5036181;28;20029;-65
2022/04/12 14:02:28;;;;;;;2.35;1.70;;;;;;;;;;5036475;28;20045;-65
2022/04/12 14:04:53;;;;;;;2.30;1.80;;;;;;;;;;5033579;28;20025;-64
2022/04/12 14:07:19;;;;;;;2.90;2.33;;;;;;;;;;5034476;28;20022;-65
2022/04/12 14:09:45;;;;;;;3.55;1.90;;;;;;;;;;5034775;28;20029;-65
2022/04/12 14:12:10;;;;;;;3.63;1.80;;;;;;;;;;5038535;28;20032;-65
2022/04/12 14:14:35;;;;;;;2.67;1.70;;;;;;;;;;5036711;28;20033;-65
2022/04/12 14:17:00;;;;;;;1.83;1.57;;;;;;;;;;5044799;28;20037;-64
2022/04/12 14:19:25;;;;;;;2.00;1.70;;;;;;;;;;5041819;28;20045;-65
2022/04/12 14:21:53;;;;;;;3.00;2.03;;;;;;;;;;5040168;28;20292;-65
2022/04/12 14:24:18;;;;;;;2.50;2.30;;;;;;;;;;5037273;28;20442;-64
2022/04/12 14:26:44;;;;;;;2.10;1.97;;;;;;;;;;5046142;28;20036;-65
2022/04/12 14:29:09;;;;;;;2.53;2.23;;;;;;;;;;5039501;28;20021;-64
2022/04/12 14:31:35;;;;;;;2.60;2.40;;;;;;;;;;5062983;28;20024;-64
2022/04/12 14:34:00;;;;;;;3.05;2.85;;;;;;;;;;5049037;28;20384;-64
2022/04/12 14:36:26;;;;;;;7.05;3.40;;;;;;;;;;5051847;28;20116;-64
2022/04/12 14:38:51;;;;;;;4.95;3.58;;;;;;;;;;5048544;28;20021;-64